createdAt,value
2022-12-03T00:00:29.677Z,100556.63
2022-12-03T00:01:01.911Z,100555.06
2022-12-03T00:01:33.735Z,100551.22
2022-12-03T00:02:05.650Z,100563.34
2022-12-03T00:02:37.674Z,100556.03
2022-12-03T00:03:10.000Z,100556.41
2022-12-03T00:03:42.265Z,100553.94
2022-12-03T00:04:14.322Z,100557.50
2022-12-03T00:04:46.192Z,100553.94
2022-12-03T00:05:18.094Z,100563.44
2022-12-03T00:05:49.963Z,100562.91
2022-12-03T00:06:22.211Z,100554.06
2022-12-03T00:06:54.091Z,100557.12
2022-12-03T00:07:26.009Z,100557.88
2022-12-03T00:07:58.050Z,100562.13
2022-12-03T00:08:29.988Z,100561.81
2022-12-03T00:09:01.914Z,100554.75
2022-12-03T00:09:33.785Z,100559.06
2022-12-03T00:10:06.791Z,100560.00
2022-12-03T00:10:38.655Z,100558.53
2022-12-03T00:11:10.527Z,100562.50
2022-12-03T00:11:42.679Z,100558.28
2022-12-03T00:12:14.556Z,100560.31
2022-12-03T00:12:46.506Z,100564.78
2022-12-03T00:13:18.373Z,100556.94
2022-12-03T00:13:50.232Z,100550.59
2022-12-03T00:14:22.153Z,100564.75
2022-12-03T00:14:54.823Z,100560.09
2022-12-03T00:15:26.987Z,100564.75
2022-12-03T00:15:58.897Z,100568.25
2022-12-03T00:16:30.920Z,100559.56
2022-12-03T00:17:03.145Z,100560.38
2022-12-03T00:17:35.059Z,100569.88
2022-12-03T00:18:06.923Z,100558.84
2022-12-03T00:18:38.781Z,100563.06
2022-12-03T00:19:10.659Z,100558.19
2022-12-03T00:19:42.496Z,100554.75
2022-12-03T00:20:23.246Z,100564.03
2022-12-03T00:20:54.975Z,100568.38
2022-12-03T00:21:26.935Z,100564.53
2022-12-03T00:21:58.804Z,100567.28
2022-12-03T00:22:31.014Z,100566.19
2022-12-03T00:23:02.860Z,100571.00
2022-12-03T00:23:38.603Z,100561.91
2022-12-03T00:24:13.767Z,100572.22
2022-12-03T00:24:45.757Z,100566.78
2022-12-03T00:25:17.821Z,100574.38
2022-12-03T00:25:49.689Z,100563.25
2022-12-03T00:26:21.569Z,100571.09
2022-12-03T00:26:53.607Z,100576.16
2022-12-03T00:27:25.462Z,100570.84
2022-12-03T00:27:57.606Z,100572.81
2022-12-03T00:28:29.487Z,100574.94
2022-12-03T00:29:01.358Z,100565.59
2022-12-03T00:29:33.265Z,100573.28
2022-12-03T00:30:06.583Z,100574.91
2022-12-03T00:30:38.479Z,100575.97
2022-12-03T00:31:10.371Z,100574.34
2022-12-03T00:31:43.284Z,100569.63
2022-12-03T00:32:15.185Z,100575.72
2022-12-03T00:32:47.043Z,100576.28
2022-12-03T00:33:19.204Z,100578.75
2022-12-03T00:33:51.733Z,100573.59
2022-12-03T00:34:23.630Z,100575.97
2022-12-03T00:34:55.710Z,100574.06
2022-12-03T00:35:27.715Z,100572.16
2022-12-03T00:35:59.619Z,100581.09
2022-12-03T00:36:31.581Z,100573.25
2022-12-03T00:37:03.526Z,100577.22
2022-12-03T00:37:35.417Z,100581.72
2022-12-03T00:38:07.301Z,100581.03
2022-12-03T00:38:39.561Z,100581.44
2022-12-03T00:39:11.419Z,100578.28
2022-12-03T00:39:43.306Z,100582.53
2022-12-03T00:40:15.436Z,100583.53
2022-12-03T00:40:47.302Z,100580.09
2022-12-03T00:41:19.164Z,100581.19
2022-12-03T00:41:51.057Z,100584.38
2022-12-03T00:42:22.898Z,100581.09
2022-12-03T00:42:54.736Z,100585.44
2022-12-03T00:43:26.635Z,100579.41
2022-12-03T00:43:58.791Z,100578.16
2022-12-03T00:44:30.661Z,100576.50
2022-12-03T00:45:02.601Z,100576.34
2022-12-03T00:45:34.464Z,100571.88
2022-12-03T00:46:06.561Z,100574.31
2022-12-03T00:46:38.531Z,100575.63
2022-12-03T00:47:11.384Z,100579.69
2022-12-03T00:47:43.313Z,100573.28
2022-12-03T00:48:15.188Z,100568.03
2022-12-03T00:48:47.229Z,100586.03
2022-12-03T00:49:19.383Z,100577.59
2022-12-03T00:49:51.377Z,100578.81
2022-12-03T00:50:23.260Z,100579.37
2022-12-03T00:50:55.133Z,100578.84
2022-12-03T00:51:27.004Z,100583.56
2022-12-03T00:51:58.859Z,100575.56
2022-12-03T00:52:30.686Z,100583.53
2022-12-03T00:53:02.632Z,100584.75
2022-12-03T00:53:35.745Z,100576.91
2022-12-03T00:54:07.611Z,100577.97
2022-12-03T00:54:39.755Z,100579.84
2022-12-03T00:55:11.852Z,100575.22
2022-12-03T00:55:43.717Z,100575.22
2022-12-03T00:56:15.612Z,100573.84
2022-12-03T00:56:47.459Z,100572.31
2022-12-03T00:57:19.300Z,100569.75
2022-12-03T00:57:51.197Z,100572.91
2022-12-03T00:58:23.087Z,100574.38
2022-12-03T00:58:54.895Z,100570.44
2022-12-03T00:59:26.776Z,100574.38
2022-12-03T00:59:58.944Z,100568.13
2022-12-03T01:00:30.762Z,100571.25
2022-12-03T01:01:02.874Z,100570.31
2022-12-03T01:01:34.914Z,100574.44
2022-12-03T01:02:07.081Z,100568.59
2022-12-03T01:02:38.987Z,100567.19
2022-12-03T01:03:10.842Z,100566.78
2022-12-03T01:03:42.725Z,100562.66
2022-12-03T01:04:14.592Z,100570.72
2022-12-03T01:04:46.591Z,100572.97
2022-12-03T01:05:19.618Z,100565.94
2022-12-03T01:05:51.544Z,100571.94
2022-12-03T01:06:23.487Z,100567.91
2022-12-03T01:06:55.995Z,100574.56
2022-12-03T01:07:28.042Z,100580.09
2022-12-03T01:08:00.014Z,100571.94
2022-12-03T01:08:31.934Z,100574.72
2022-12-03T01:09:03.904Z,100577.09
2022-12-03T01:09:35.820Z,100577.41
2022-12-03T01:10:08.062Z,100567.88
2022-12-03T01:10:40.277Z,100575.50
2022-12-03T01:11:30.934Z,100572.63
2022-12-03T01:12:02.821Z,100572.19
2022-12-03T01:12:34.736Z,100569.75
2022-12-03T01:13:06.633Z,100571.56
2022-12-03T01:13:38.478Z,100576.44
2022-12-03T01:14:15.499Z,100577.91
2022-12-03T01:14:47.567Z,100571.47
2022-12-03T01:15:19.715Z,100571.44
2022-12-03T01:15:52.028Z,100568.03
2022-12-03T01:16:24.093Z,100573.22
2022-12-03T01:16:56.103Z,100569.47
2022-12-03T01:17:28.032Z,100571.94
2022-12-03T01:17:59.893Z,100568.41
2022-12-03T01:18:31.742Z,100571.78
2022-12-03T01:19:04.981Z,100568.41
2022-12-03T01:19:36.981Z,100572.34
2022-12-03T01:20:09.960Z,100572.81
2022-12-03T01:20:41.846Z,100569.72
2022-12-03T01:21:14.050Z,100571.78
2022-12-03T01:21:48.912Z,100569.59
2022-12-03T01:22:20.922Z,100568.13
2022-12-03T01:22:52.838Z,100566.72
2022-12-03T01:23:24.720Z,100569.44
2022-12-03T01:23:57.073Z,100569.00
2022-12-03T01:24:29.010Z,100570.88
2022-12-03T01:25:00.928Z,100574.53
2022-12-03T01:25:32.939Z,100570.03
2022-12-03T01:26:04.907Z,100571.97
2022-12-03T01:26:37.546Z,100577.44
2022-12-03T01:27:09.383Z,100571.63
2022-12-03T01:27:41.211Z,100571.44
2022-12-03T01:28:13.099Z,100574.31
2022-12-03T01:28:44.977Z,100571.44
2022-12-03T01:29:16.817Z,100573.13
2022-12-03T01:29:48.676Z,100570.13
2022-12-03T01:30:20.599Z,100568.81
2022-12-03T01:31:11.070Z,100572.37
2022-12-03T01:32:02.026Z,100572.63
2022-12-03T01:32:33.940Z,100570.69
2022-12-03T01:33:05.782Z,100575.84
2022-12-03T01:33:37.614Z,100573.94
2022-12-03T01:34:09.466Z,100577.84
2022-12-03T01:34:41.337Z,100579.78
2022-12-03T01:35:13.191Z,100570.66
2022-12-03T01:35:45.010Z,100568.34
2022-12-03T01:36:16.890Z,100572.97
2022-12-03T01:36:49.202Z,100574.03
2022-12-03T01:37:23.965Z,100572.25
2022-12-03T01:37:55.812Z,100582.09
2022-12-03T01:38:27.653Z,100567.13
2022-12-03T01:38:59.625Z,100579.63
2022-12-03T01:39:31.508Z,100579.31
2022-12-03T01:40:04.961Z,100568.75
2022-12-03T01:40:36.874Z,100581.06
2022-12-03T01:41:11.923Z,100575.22
2022-12-03T01:41:44.662Z,100581.78
2022-12-03T01:42:39.722Z,100578.81
2022-12-03T01:43:11.575Z,100577.31
2022-12-03T01:43:43.688Z,100573.06
2022-12-03T01:44:23.121Z,100577.75
2022-12-03T01:44:58.567Z,100585.34
2022-12-03T01:45:30.984Z,100580.44
2022-12-03T01:46:03.625Z,100585.06
2022-12-03T01:46:40.163Z,100582.03
2022-12-03T01:47:18.146Z,100586.75
2022-12-03T01:47:50.810Z,100582.31
2022-12-03T01:48:22.670Z,100583.72
2022-12-03T01:48:56.067Z,100580.44
2022-12-03T01:49:43.273Z,100584.81
2022-12-03T01:50:20.869Z,100583.59
2022-12-03T01:50:52.746Z,100586.44
2022-12-03T01:51:24.702Z,100578.34
2022-12-03T01:51:57.899Z,100583.22
2022-12-03T01:52:34.509Z,100583.91
2022-12-03T01:53:06.715Z,100579.87
2022-12-03T01:53:38.601Z,100580.59
2022-12-03T01:54:18.306Z,100584.53
2022-12-03T01:54:59.241Z,100577.75
2022-12-03T01:55:32.331Z,100579.91
2022-12-03T01:56:04.360Z,100584.66
2022-12-03T01:56:36.203Z,100574.44
2022-12-03T01:57:20.133Z,100579.84
2022-12-03T01:57:55.725Z,100581.47
2022-12-03T01:58:29.638Z,100585.25
2022-12-03T01:59:01.508Z,100584.72
2022-12-03T01:59:36.337Z,100576.50
2022-12-03T02:00:17.165Z,100582.84
2022-12-03T02:00:49.356Z,100580.81
2022-12-03T02:01:21.283Z,100579.06
2022-12-03T02:01:53.230Z,100580.78
2022-12-03T02:02:28.438Z,100581.34
2022-12-03T02:03:11.453Z,100587.13
2022-12-03T02:03:45.521Z,100578.97
2022-12-03T02:04:22.552Z,100590.41
2022-12-03T02:04:55.197Z,100582.87
2022-12-03T02:05:30.243Z,100583.97
2022-12-03T02:06:02.224Z,100577.75
2022-12-03T02:06:34.521Z,100586.56
2022-12-03T02:07:19.819Z,100582.63
2022-12-03T02:07:52.568Z,100586.66
2022-12-03T02:08:34.626Z,100578.91
2022-12-03T02:09:08.699Z,100582.06
2022-12-03T02:09:40.562Z,100581.50
2022-12-03T02:10:15.871Z,100587.22
2022-12-03T02:10:47.780Z,100582.06
2022-12-03T02:11:25.588Z,100585.56
2022-12-03T02:11:57.468Z,100587.97
2022-12-03T02:12:36.379Z,100584.16
2022-12-03T02:13:09.760Z,100579.00
2022-12-03T02:13:42.930Z,100595.06
2022-12-03T02:14:21.661Z,100581.50
2022-12-03T02:14:54.486Z,100580.78
2022-12-03T02:15:26.641Z,100588.94
2022-12-03T02:15:58.787Z,100587.44
2022-12-03T02:16:31.209Z,100584.84
2022-12-03T02:17:03.120Z,100583.13
2022-12-03T02:17:35.414Z,100581.00
2022-12-03T02:18:08.954Z,100583.84
2022-12-03T02:18:40.981Z,100583.16
2022-12-03T02:19:27.529Z,100584.22
2022-12-03T02:20:01.749Z,100586.66
2022-12-03T02:20:41.228Z,100578.34
2022-12-03T02:21:15.628Z,100579.97
2022-12-03T02:22:09.381Z,100580.63
2022-12-03T02:23:16.042Z,100581.16
2022-12-03T02:24:33.359Z,100580.38
2022-12-03T02:25:11.171Z,100580.94
2022-12-03T02:25:43.036Z,100584.84
2022-12-03T02:26:14.944Z,100577.09
2022-12-03T02:26:46.811Z,100582.25
2022-12-03T02:27:18.665Z,100579.25
2022-12-03T02:27:51.404Z,100581.03
2022-12-03T02:28:23.279Z,100580.47
2022-12-03T02:28:55.338Z,100582.50
2022-12-03T02:29:27.386Z,100577.69
2022-12-03T02:29:59.288Z,100584.78
2022-12-03T02:30:32.209Z,100575.63
2022-12-03T02:31:05.388Z,100581.91
2022-12-03T02:31:37.685Z,100581.91
2022-12-03T02:32:09.563Z,100584.47
2022-12-03T02:32:41.664Z,100585.03
2022-12-03T02:33:14.095Z,100583.34
2022-12-03T02:33:45.951Z,100581.28
2022-12-03T02:34:38.235Z,100577.62
2022-12-03T02:35:18.665Z,100582.66
2022-12-03T02:35:50.811Z,100585.28
2022-12-03T02:36:22.925Z,100582.31
2022-12-03T02:36:54.756Z,100589.25
2022-12-03T02:37:32.373Z,100588.81
2022-12-03T02:38:21.498Z,100581.88
2022-12-03T02:38:53.573Z,100589.34
2022-12-03T02:39:25.724Z,100583.06
2022-12-03T02:40:01.800Z,100576.16
2022-12-03T02:40:34.353Z,100577.78
2022-12-03T02:41:10.924Z,100581.34
2022-12-03T02:42:01.384Z,100586.37
2022-12-03T02:42:36.310Z,100586.75
2022-12-03T02:43:08.193Z,100578.53
2022-12-03T02:43:40.069Z,100583.13
2022-12-03T02:44:12.594Z,100581.75
2022-12-03T02:44:44.498Z,100586.50
2022-12-03T02:45:24.077Z,100585.41
2022-12-03T02:45:59.974Z,100575.69
2022-12-03T02:46:32.919Z,100585.19
2022-12-03T02:47:05.013Z,100584.44
2022-12-03T02:47:43.364Z,100582.41
2022-12-03T02:48:19.225Z,100583.06
2022-12-03T02:48:51.196Z,100581.16
2022-12-03T02:49:23.049Z,100583.03
2022-12-03T02:49:55.905Z,100579.53
2022-12-03T02:50:34.978Z,100580.31
2022-12-03T02:51:10.370Z,100581.81
2022-12-03T02:51:42.516Z,100578.47
2022-12-03T02:52:15.956Z,100585.25
2022-12-03T02:52:48.818Z,100586.97
2022-12-03T02:53:26.510Z,100576.25
2022-12-03T02:53:59.494Z,100576.00
2022-12-03T02:54:31.534Z,100576.25
2022-12-03T02:55:06.387Z,100566.91
2022-12-03T02:55:39.134Z,100575.19
2022-12-03T02:56:16.401Z,100578.16
2022-12-03T02:56:48.839Z,100573.38
2022-12-03T02:57:21.186Z,100573.47
2022-12-03T02:57:53.235Z,100578.38
2022-12-03T02:58:26.471Z,100578.09
2022-12-03T02:59:01.858Z,100577.31
2022-12-03T02:59:34.267Z,100573.13
2022-12-03T03:00:08.440Z,100575.81
2022-12-03T03:00:40.752Z,100582.06
2022-12-03T03:01:13.170Z,100584.75
2022-12-03T03:01:45.167Z,100582.22
2022-12-03T03:02:17.789Z,100578.47
2022-12-03T03:02:50.958Z,100583.72
2022-12-03T03:03:27.061Z,100584.09
2022-12-03T03:03:59.318Z,100586.47
2022-12-03T03:04:31.271Z,100577.88
2022-12-03T03:05:05.490Z,100583.34
2022-12-03T03:05:39.815Z,100581.81
2022-12-03T03:06:12.196Z,100587.09
2022-12-03T03:06:44.305Z,100583.03
2022-12-03T03:07:16.764Z,100584.81
2022-12-03T03:07:51.043Z,100579.56
2022-12-03T03:08:24.616Z,100574.44
2022-12-03T03:08:57.260Z,100583.28
2022-12-03T03:09:29.175Z,100579.19
2022-12-03T03:10:02.175Z,100578.63
2022-12-03T03:10:36.990Z,100572.81
2022-12-03T03:11:08.865Z,100580.94
2022-12-03T03:11:40.818Z,100578.59
2022-12-03T03:12:12.680Z,100578.59
2022-12-03T03:12:44.575Z,100579.69
2022-12-03T03:13:19.033Z,100571.91
2022-12-03T03:13:50.944Z,100579.81
2022-12-03T03:14:22.810Z,100580.22
2022-12-03T03:14:55.113Z,100577.78
2022-12-03T03:15:27.157Z,100578.84
2022-12-03T03:15:59.488Z,100575.84
2022-12-03T03:16:33.850Z,100580.19
2022-12-03T03:17:06.497Z,100579.22
2022-12-03T03:17:38.742Z,100576.25
2022-12-03T03:18:12.414Z,100580.22
2022-12-03T03:18:44.709Z,100579.56
2022-12-03T03:19:17.145Z,100578.91
2022-12-03T03:19:49.066Z,100580.94
2022-12-03T03:20:21.002Z,100578.47
2022-12-03T03:20:53.695Z,100578.53
2022-12-03T03:21:25.661Z,100573.66
2022-12-03T03:21:57.572Z,100575.91
2022-12-03T03:22:38.637Z,100583.69
2022-12-03T03:23:17.815Z,100567.53
2022-12-03T03:23:50.037Z,100571.47
2022-12-03T03:24:22.825Z,100572.03
2022-12-03T03:24:55.038Z,100576.31
2022-12-03T03:25:27.143Z,100578.50
2022-12-03T03:26:01.576Z,100575.50
2022-12-03T03:26:33.517Z,100575.87
2022-12-03T03:27:05.990Z,100577.91
2022-12-03T03:27:39.006Z,100576.31
2022-12-03T03:28:11.923Z,100572.84
2022-12-03T03:28:48.573Z,100582.22
2022-12-03T03:29:20.973Z,100578.56
2022-12-03T03:29:52.921Z,100576.13
2022-12-03T03:30:24.864Z,100579.22
2022-12-03T03:30:58.916Z,100575.72
2022-12-03T03:31:30.875Z,100576.09
2022-12-03T03:32:04.395Z,100581.03
2022-12-03T03:32:37.291Z,100579.94
2022-12-03T03:33:10.076Z,100576.16
2022-12-03T03:33:45.007Z,100579.13
2022-12-03T03:34:17.594Z,100573.66
2022-12-03T03:34:50.281Z,100580.88
2022-12-03T03:35:24.544Z,100577.22
2022-12-03T03:35:57.257Z,100568.78
2022-12-03T03:36:29.155Z,100574.47
2022-12-03T03:37:01.091Z,100585.06
2022-12-03T03:37:33.060Z,100575.25
2022-12-03T03:38:05.881Z,100581.00
2022-12-03T03:38:38.459Z,100580.16
2022-12-03T03:39:11.031Z,100577.59
2022-12-03T03:39:43.022Z,100576.13
2022-12-03T03:40:15.302Z,100573.94
2022-12-03T03:40:49.431Z,100579.13
2022-12-03T03:41:21.830Z,100572.63
2022-12-03T03:41:53.774Z,100576.28
2022-12-03T03:42:25.687Z,100579.25
2022-12-03T03:42:58.234Z,100568.50
2022-12-03T03:43:33.316Z,100575.13
2022-12-03T03:44:07.618Z,100576.09
2022-12-03T03:44:39.707Z,100574.62
2022-12-03T03:45:11.625Z,100579.13
2022-12-03T03:45:44.563Z,100569.19
2022-12-03T03:46:18.277Z,100569.31
2022-12-03T03:46:50.372Z,100569.31
2022-12-03T03:47:23.845Z,100573.53
2022-12-03T03:47:57.509Z,100573.16
2022-12-03T03:48:29.713Z,100574.78
2022-12-03T03:49:03.552Z,100569.88
2022-12-03T03:49:35.737Z,100569.47
2022-12-03T03:50:10.260Z,100574.22
2022-12-03T03:50:44.546Z,100570.94
2022-12-03T03:51:18.836Z,100571.47
2022-12-03T03:51:50.974Z,100566.34
2022-12-03T03:52:23.255Z,100571.22
2022-12-03T03:52:56.749Z,100574.66
2022-12-03T03:53:29.109Z,100575.72
2022-12-03T03:54:03.772Z,100577.47
2022-12-03T03:54:36.475Z,100573.28
2022-12-03T03:55:10.417Z,100581.03
2022-12-03T03:55:42.858Z,100579.44
2022-12-03T03:56:17.525Z,100573.59
2022-12-03T03:56:49.822Z,100575.06
2022-12-03T03:57:21.780Z,100572.59
2022-12-03T03:57:53.689Z,100575.06
2022-12-03T03:58:25.588Z,100572.84
2022-12-03T03:58:57.965Z,100576.34
2022-12-03T03:59:29.955Z,100574.62
2022-12-03T04:00:02.055Z,100573.94
2022-12-03T04:00:37.913Z,100573.94
2022-12-03T04:01:12.602Z,100581.28
2022-12-03T04:01:46.080Z,100566.47
2022-12-03T04:02:21.405Z,100577.72
2022-12-03T04:02:54.408Z,100576.63
2022-12-03T04:03:27.391Z,100580.19
2022-12-03T04:04:02.404Z,100573.69
2022-12-03T04:04:36.599Z,100581.03
2022-12-03T04:05:15.265Z,100579.63
2022-12-03T04:05:47.662Z,100577.66
2022-12-03T04:06:19.965Z,100577.78
2022-12-03T04:06:51.787Z,100579.97
2022-12-03T04:07:23.630Z,100571.00
2022-12-03T04:07:55.681Z,100573.84
2022-12-03T04:08:27.571Z,100576.66
2022-12-03T04:08:59.531Z,100578.31
2022-12-03T04:09:31.351Z,100577.06
2022-12-03T04:10:23.323Z,100578.31
2022-12-03T04:11:13.637Z,100580.22
2022-12-03T04:12:04.533Z,100574.94
2022-12-03T04:13:05.724Z,100580.34
2022-12-03T04:13:37.628Z,100586.19
2022-12-03T04:14:09.524Z,100574.78
2022-12-03T04:14:41.356Z,100578.44
2022-12-03T04:15:13.194Z,100579.94
2022-12-03T04:15:45.058Z,100571.09
2022-12-03T04:16:16.919Z,100580.91
2022-12-03T04:16:49.229Z,100578.84
2022-12-03T04:17:21.299Z,100576.94
2022-12-03T04:18:12.054Z,100577.91
2022-12-03T04:18:44.904Z,100582.13
2022-12-03T04:19:16.757Z,100573.41
2022-12-03T04:19:48.684Z,100585.09
2022-12-03T04:20:20.516Z,100577.75
2022-12-03T04:21:12.332Z,100582.63
2022-12-03T04:22:11.117Z,100578.81
2022-12-03T04:22:43.342Z,100586.44
2022-12-03T04:23:15.323Z,100584.19
2022-12-03T04:23:47.226Z,100589.84
2022-12-03T04:24:19.060Z,100594.34
2022-12-03T04:24:51.303Z,100580.50
2022-12-03T04:25:41.856Z,100582.41
2022-12-03T04:26:32.279Z,100586.19
2022-12-03T04:27:22.584Z,100591.34
2022-12-03T04:28:13.160Z,100595.31
2022-12-03T04:28:50.922Z,100594.13
2022-12-03T04:29:23.183Z,100595.31
2022-12-03T04:29:55.052Z,100592.03
2022-12-03T04:30:27.295Z,100591.88
2022-12-03T04:30:59.689Z,100588.63
2022-12-03T04:31:54.533Z,100589.97
2022-12-03T04:32:45.272Z,100584.38
2022-12-03T04:33:36.258Z,100587.91
2022-12-03T04:34:28.249Z,100591.59
2022-12-03T04:35:18.863Z,100585.72
2022-12-03T04:35:50.982Z,100587.13
2022-12-03T04:36:22.839Z,100591.50
2022-12-03T04:36:54.759Z,100597.22
2022-12-03T04:37:26.604Z,100592.38
2022-12-03T04:37:58.500Z,100594.00
2022-12-03T04:38:30.753Z,100592.09
2022-12-03T04:39:03.034Z,100594.44
2022-12-03T04:39:35.518Z,100594.59
2022-12-03T04:40:27.883Z,100595.69
2022-12-03T04:41:04.406Z,100594.34
2022-12-03T04:41:36.312Z,100589.16
2022-12-03T04:42:08.364Z,100593.53
2022-12-03T04:42:40.207Z,100589.84
2022-12-03T04:43:13.082Z,100588.63
2022-12-03T04:44:17.871Z,100585.09
2022-12-03T04:44:50.383Z,100594.88
2022-12-03T04:45:22.486Z,100584.88
2022-12-03T04:45:54.440Z,100584.31
2022-12-03T04:46:26.411Z,100585.91
2022-12-03T04:46:58.362Z,100583.72
2022-12-03T04:47:31.526Z,100588.88
2022-12-03T04:48:04.321Z,100585.59
2022-12-03T04:48:36.219Z,100579.37
2022-12-03T04:49:08.575Z,100586.97
2022-12-03T04:49:46.041Z,100584.81
2022-12-03T04:50:17.934Z,100588.84
2022-12-03T04:50:49.833Z,100582.34
2022-12-03T04:51:21.702Z,100580.31
2022-12-03T04:51:53.713Z,100588.88
2022-12-03T04:52:26.512Z,100588.31
2022-12-03T04:52:58.425Z,100587.22
2022-12-03T04:53:30.277Z,100588.31
2022-12-03T04:54:02.291Z,100587.34
2022-12-03T04:54:34.878Z,100581.50
2022-12-03T04:55:06.955Z,100583.22
2022-12-03T04:55:38.781Z,100584.88
2022-12-03T04:56:10.648Z,100586.59
2022-12-03T04:56:42.580Z,100587.19
2022-12-03T04:57:15.833Z,100596.28
2022-12-03T04:57:47.658Z,100585.53
2022-12-03T04:58:19.505Z,100588.78
2022-12-03T04:58:51.445Z,100589.84
2022-12-03T04:59:23.402Z,100591.47
2022-12-03T04:59:55.590Z,100589.72
2022-12-03T05:00:29.052Z,100588.84
2022-12-03T05:01:00.993Z,100593.97
2022-12-03T05:01:32.925Z,100589.06
2022-12-03T05:02:06.337Z,100586.19
2022-12-03T05:02:38.253Z,100594.34
2022-12-03T05:03:10.169Z,100592.44
2022-12-03T05:03:42.035Z,100590.84
2022-12-03T05:04:14.660Z,100594.13
2022-12-03T05:04:46.568Z,100589.19
2022-12-03T05:05:18.726Z,100594.13
2022-12-03T05:05:50.549Z,100582.94
2022-12-03T05:06:22.681Z,100589.47
2022-12-03T05:06:54.633Z,100587.97
2022-12-03T05:07:26.578Z,100592.31
2022-12-03T05:07:58.505Z,100584.97
2022-12-03T05:08:30.382Z,100586.69
2022-12-03T05:09:02.445Z,100582.91
2022-12-03T05:09:34.464Z,100588.88
2022-12-03T05:10:07.096Z,100579.53
2022-12-03T05:10:39.344Z,100594.09
2022-12-03T05:11:11.194Z,100590.44
2022-12-03T05:11:43.580Z,100591.22
2022-12-03T05:12:15.421Z,100589.84
2022-12-03T05:12:47.314Z,100583.09
2022-12-03T05:13:19.203Z,100584.00
2022-12-03T05:13:52.477Z,100583.44
2022-12-03T05:14:24.303Z,100581.09
2022-12-03T05:14:56.449Z,100582.59
2022-12-03T05:15:28.482Z,100582.31
2022-12-03T05:16:00.745Z,100582.34
2022-12-03T05:16:32.735Z,100587.00
2022-12-03T05:17:04.794Z,100586.06
2022-12-03T05:17:36.818Z,100587.28
2022-12-03T05:18:09.977Z,100588.88
2022-12-03T05:18:41.849Z,100589.03
2022-12-03T05:19:13.687Z,100586.84
2022-12-03T05:20:04.365Z,100584.69
2022-12-03T05:20:42.121Z,100587.66
2022-12-03T05:21:14.255Z,100586.59
2022-12-03T05:21:46.164Z,100586.59
2022-12-03T05:22:18.411Z,100591.38
2022-12-03T05:22:50.276Z,100593.94
2022-12-03T05:23:22.308Z,100599.50
2022-12-03T05:23:54.337Z,100597.91
2022-12-03T05:24:26.183Z,100584.47
2022-12-03T05:24:58.039Z,100583.91
2022-12-03T05:25:29.954Z,100585.91
2022-12-03T05:26:01.852Z,100585.38
2022-12-03T05:26:34.149Z,100584.69
2022-12-03T05:27:06.270Z,100590.75
2022-12-03T05:27:38.145Z,100586.97
2022-12-03T05:28:10.081Z,100585.87
2022-12-03T05:28:41.929Z,100587.34
2022-12-03T05:29:13.764Z,100591.12
2022-12-03T05:29:45.606Z,100591.28
2022-12-03T05:30:17.578Z,100592.87
2022-12-03T05:30:49.659Z,100588.25
2022-12-03T05:31:21.639Z,100589.66
2022-12-03T05:31:53.842Z,100590.63
2022-12-03T05:32:25.705Z,100596.75
2022-12-03T05:32:57.683Z,100595.66
2022-12-03T05:33:29.612Z,100591.44
2022-12-03T05:34:01.434Z,100590.50
2022-12-03T05:34:33.303Z,100593.72
2022-12-03T05:35:05.549Z,100590.72
2022-12-03T05:35:37.432Z,100598.06
2022-12-03T05:36:09.523Z,100590.72
2022-12-03T05:36:41.461Z,100591.53
2022-12-03T05:37:13.667Z,100597.91
2022-12-03T05:37:45.635Z,100600.13
2022-12-03T05:38:17.540Z,100599.03
2022-12-03T05:38:49.480Z,100599.41
2022-12-03T05:39:21.388Z,100607.25
2022-12-03T05:39:53.246Z,100594.72
2022-12-03T05:40:25.299Z,100597.19
2022-12-03T05:40:57.127Z,100592.56
2022-12-03T05:41:47.961Z,100596.13
2022-12-03T05:42:38.905Z,100593.91
2022-12-03T05:43:10.795Z,100593.28
2022-12-03T05:43:42.684Z,100589.41
2022-12-03T05:44:20.117Z,100587.75
2022-12-03T05:44:52.778Z,100588.84
2022-12-03T05:45:28.103Z,100594.00
2022-12-03T05:46:00.012Z,100597.00
2022-12-03T05:46:35.000Z,100591.59
2022-12-03T05:47:06.946Z,100596.47
2022-12-03T05:47:41.746Z,100589.13
2022-12-03T05:48:15.624Z,100596.19
2022-12-03T05:48:47.476Z,100596.59
2022-12-03T05:49:19.334Z,100593.72
2022-12-03T05:49:51.178Z,100599.97
2022-12-03T05:50:26.020Z,100600.03
2022-12-03T05:51:00.119Z,100597.56
2022-12-03T05:51:31.921Z,100599.16
2022-12-03T05:52:04.017Z,100599.97
2022-12-03T05:52:35.872Z,100598.66
2022-12-03T05:53:08.078Z,100601.22
2022-12-03T05:53:40.020Z,100597.94
2022-12-03T05:54:11.957Z,100600.94
2022-12-03T05:54:43.846Z,100595.91
2022-12-03T05:55:16.615Z,100596.19
2022-12-03T05:55:48.444Z,100602.31
2022-12-03T05:56:20.280Z,100597.00
2022-12-03T05:56:52.161Z,100605.97
2022-12-03T05:57:24.106Z,100607.34
2022-12-03T05:57:56.016Z,100601.66
2022-12-03T05:58:28.574Z,100602.16
2022-12-03T05:59:01.699Z,100607.63
2022-12-03T05:59:33.524Z,100601.25
2022-12-03T06:00:11.282Z,100604.09
2022-12-03T06:00:44.454Z,100607.34
2022-12-03T06:01:16.901Z,100614.69
2022-12-03T06:01:48.926Z,100610.59
2022-12-03T06:02:22.273Z,100607.31
2022-12-03T06:02:55.084Z,100613.03
2022-12-03T06:03:27.238Z,100613.25
2022-12-03T06:04:00.277Z,100619.44
2022-12-03T06:04:32.254Z,100619.59
2022-12-03T06:05:04.386Z,100617.13
2022-12-03T06:05:36.291Z,100618.75
2022-12-03T06:06:08.191Z,100617.63
2022-12-03T06:06:40.364Z,100617.34
2022-12-03T06:07:14.076Z,100618.59
2022-12-03T06:07:47.160Z,100627.97
2022-12-03T06:08:19.075Z,100620.09
2022-12-03T06:08:50.977Z,100619.03
2022-12-03T06:09:22.811Z,100627.97
2022-12-03T06:09:54.729Z,100632.28
2022-12-03T06:10:27.310Z,100629.31
2022-12-03T06:10:59.567Z,100633.09
2022-12-03T06:11:34.101Z,100628.22
2022-12-03T06:12:07.027Z,100629.56
2022-12-03T06:12:38.928Z,100635.81
2022-12-03T06:13:11.690Z,100630.66
2022-12-03T06:13:43.560Z,100631.50
2022-12-03T06:14:15.596Z,100629.31
2022-12-03T06:14:47.463Z,100625.28
2022-12-03T06:15:20.313Z,100629.75
2022-12-03T06:15:52.199Z,100625.66
2022-12-03T06:16:24.213Z,100627.13
2022-12-03T06:16:56.172Z,100619.78
2022-12-03T06:17:28.515Z,100621.69
2022-12-03T06:18:00.454Z,100629.56
2022-12-03T06:18:32.325Z,100627.53
2022-12-03T06:19:04.192Z,100626.63
2022-12-03T06:19:36.048Z,100629.06
2022-12-03T06:20:09.081Z,100628.50
2022-12-03T06:20:41.068Z,100630.13
2022-12-03T06:21:13.137Z,100628.22
2022-12-03T06:21:46.711Z,100628.34
2022-12-03T06:22:19.191Z,100632.19
2022-12-03T06:22:51.318Z,100624.06
2022-12-03T06:23:23.259Z,100627.06
2022-12-03T06:23:55.123Z,100625.78
2022-12-03T06:24:26.984Z,100625.53
2022-12-03T06:25:04.900Z,100623.91
2022-12-03T06:25:38.650Z,100625.41